createdAt,value
2023-05-12T00:03:01.048Z,6
2023-05-12T00:08:02.561Z,5
2023-05-12T00:13:04.009Z,4
2023-05-12T00:18:05.776Z,4
2023-05-12T00:23:07.250Z,5
2023-05-12T00:28:08.742Z,4
2023-05-12T00:33:10.237Z,5
2023-05-12T00:38:11.647Z,4
2023-05-12T00:43:13.058Z,4
2023-05-12T00:48:14.462Z,4
2023-05-12T00:53:15.852Z,3
2023-05-12T00:58:17.385Z,3
2023-05-12T01:03:18.933Z,3
2023-05-12T01:08:20.452Z,3
2023-05-12T01:13:21.821Z,2
2023-05-12T01:18:23.368Z,3
2023-05-12T01:23:24.879Z,4
2023-05-12T01:28:26.341Z,3
2023-05-12T01:33:27.772Z,3
2023-05-12T01:38:29.259Z,3
2023-05-12T01:43:30.653Z,4
2023-05-12T01:48:32.047Z,5
2023-05-12T01:53:33.502Z,4
2023-05-12T01:58:35.033Z,4
2023-05-12T02:03:36.706Z,3
2023-05-12T02:08:38.257Z,3
2023-05-12T02:13:39.703Z,4
2023-05-12T02:18:41.159Z,3
2023-05-12T02:23:42.675Z,3
2023-05-12T02:28:44.118Z,5
2023-05-12T02:33:45.672Z,3
2023-05-12T02:38:47.144Z,4
2023-05-12T02:43:48.752Z,2
2023-05-12T02:48:50.175Z,4
2023-05-12T02:53:51.552Z,5
2023-05-12T02:58:53.171Z,5
2023-05-12T03:03:54.658Z,5
2023-05-12T03:08:56.076Z,8
2023-05-12T03:13:57.480Z,11
2023-05-12T03:18:58.932Z,17
2023-05-12T03:24:00.377Z,17
2023-05-12T03:29:01.801Z,20
2023-05-12T03:34:03.246Z,16
2023-05-12T03:39:04.638Z,18
2023-05-12T03:44:06.031Z,19
2023-05-12T03:49:07.448Z,12
2023-05-12T03:54:08.853Z,11
2023-05-12T03:59:10.275Z,12
2023-05-12T04:04:11.745Z,11
2023-05-12T04:09:13.266Z,10
2023-05-12T04:14:14.851Z,10
2023-05-12T04:19:16.226Z,12
2023-05-12T04:24:17.617Z,18
2023-05-12T04:29:19.005Z,14
2023-05-12T04:34:20.407Z,13
2023-05-12T04:39:21.837Z,9
2023-05-12T04:44:23.213Z,9
2023-05-12T04:49:24.601Z,9
2023-05-12T04:54:26.072Z,7
2023-05-12T04:59:27.464Z,6
2023-05-12T05:04:28.885Z,6
2023-05-12T05:09:30.297Z,7
2023-05-12T05:14:32.275Z,5
2023-05-12T05:19:43.902Z,4
2023-05-12T05:24:53.834Z,6
2023-05-12T05:29:55.255Z,4
2023-05-12T05:34:56.876Z,5
2023-05-12T05:39:58.351Z,5
2023-05-12T05:44:59.745Z,4
2023-05-12T05:50:01.315Z,16
2023-05-12T05:55:02.663Z,25
2023-05-12T06:00:04.048Z,10
2023-05-12T06:05:05.444Z,3
2023-05-12T06:10:06.913Z,4
2023-05-12T06:15:08.317Z,16
2023-05-12T06:20:09.719Z,9
2023-05-12T06:25:11.109Z,3
2023-05-12T06:30:14.946Z,9
2023-05-12T06:35:28.225Z,2
2023-05-12T06:40:29.606Z,2
2023-05-12T06:45:30.999Z,3
2023-05-12T06:50:43.338Z,3
2023-05-12T06:55:44.723Z,3
2023-05-12T07:00:46.132Z,3
2023-05-12T07:05:47.576Z,3
2023-05-12T07:10:48.983Z,1
2023-05-12T07:15:50.410Z,2
2023-05-12T07:20:51.860Z,2
2023-05-12T07:25:53.234Z,1
2023-05-12T07:30:54.668Z,2
2023-05-12T07:35:56.094Z,2
2023-05-12T07:40:58.123Z,2
2023-05-12T07:45:59.534Z,0
2023-05-12T07:51:01.268Z,1
2023-05-12T07:56:02.744Z,1
2023-05-12T08:01:04.322Z,1
2023-05-12T08:06:05.772Z,0
2023-05-12T08:11:07.167Z,1
2023-05-12T08:16:08.582Z,1
2023-05-12T08:21:09.997Z,1
2023-05-12T08:26:11.375Z,1
2023-05-12T08:31:12.891Z,4
2023-05-12T08:36:14.375Z,11
2023-05-12T08:41:15.770Z,16
2023-05-12T08:46:17.177Z,0
2023-05-12T08:51:18.541Z,0
2023-05-12T09:01:24.458Z,1
2023-05-12T09:06:25.910Z,0
2023-05-12T09:11:27.294Z,1
2023-05-12T09:16:28.761Z,1
2023-05-12T09:21:30.161Z,1
2023-05-12T09:26:31.566Z,1
2023-05-12T09:31:32.983Z,1
2023-05-12T09:36:34.513Z,1
2023-05-12T09:41:35.949Z,2
2023-05-12T09:46:37.353Z,2
2023-05-12T09:51:38.661Z,2
2023-05-12T09:56:40.002Z,2
2023-05-12T10:01:41.512Z,2
2023-05-12T10:06:42.909Z,3
2023-05-12T10:11:44.352Z,1
2023-05-12T10:16:45.834Z,3
2023-05-12T10:21:47.286Z,2
2023-05-12T10:26:48.687Z,2
2023-05-12T10:31:50.273Z,1
2023-05-12T10:36:51.781Z,1
2023-05-12T10:41:53.183Z,2
2023-05-12T10:46:54.591Z,1
2023-05-12T10:51:55.998Z,0
2023-05-12T10:56:57.567Z,2
2023-05-12T11:02:00.042Z,1
2023-05-12T11:07:02.964Z,1
2023-05-12T11:12:04.942Z,1
2023-05-12T11:17:06.370Z,0
2023-05-12T11:22:07.789Z,1
2023-05-12T11:27:09.163Z,0
2023-05-12T11:32:10.765Z,0
2023-05-12T11:37:12.183Z,1
2023-05-12T11:42:14.658Z,0
2023-05-12T11:47:17.228Z,0
2023-05-12T11:52:18.683Z,1
2023-05-12T11:57:20.113Z,0
2023-05-12T12:02:32.114Z,0
2023-05-12T12:07:33.590Z,1
2023-05-12T12:12:35.119Z,1
2023-05-12T12:17:36.603Z,1
2023-05-12T12:22:38.076Z,1
2023-05-12T12:27:39.524Z,1
2023-05-12T12:32:40.974Z,1
2023-05-12T12:37:42.548Z,1
2023-05-12T12:42:44.033Z,1
2023-05-12T12:47:45.496Z,1
2023-05-12T12:52:46.924Z,1
2023-05-12T12:57:48.363Z,1
2023-05-12T13:02:49.974Z,1
2023-05-12T13:07:51.514Z,2
2023-05-12T13:12:52.965Z,7
2023-05-12T13:17:54.626Z,15
2023-05-12T13:22:56.041Z,7
2023-05-12T13:27:57.426Z,1
2023-05-12T13:32:58.892Z,1
2023-05-12T13:38:00.359Z,2
2023-05-12T13:43:01.912Z,2
2023-05-12T13:48:03.336Z,0
2023-05-12T13:53:04.781Z,1
2023-05-12T13:58:06.171Z,1
2023-05-12T14:03:07.640Z,1
2023-05-12T14:08:09.176Z,3
2023-05-12T14:13:10.581Z,2
2023-05-12T14:18:12.895Z,3
2023-05-12T14:23:15.664Z,1
2023-05-12T14:28:17.145Z,3
2023-05-12T14:33:18.584Z,2
2023-05-12T14:38:20.006Z,1
2023-05-12T14:43:21.437Z,2
2023-05-12T14:48:22.853Z,1
2023-05-12T14:53:24.316Z,2
2023-05-12T14:58:25.768Z,2
2023-05-12T15:03:27.226Z,4
2023-05-12T15:08:28.743Z,6
2023-05-12T15:13:30.143Z,5
2023-05-12T15:18:31.604Z,2
2023-05-12T15:23:33.078Z,2
2023-05-12T15:28:34.530Z,3
2023-05-12T15:33:35.904Z,3
2023-05-12T15:38:37.341Z,3
2023-05-12T15:43:38.753Z,4
2023-05-12T15:48:40.206Z,4
2023-05-12T15:53:41.599Z,2
2023-05-12T15:58:42.994Z,2
2023-05-12T16:03:44.465Z,3
2023-05-12T16:08:45.901Z,3
2023-05-12T16:13:47.323Z,5
2023-05-12T16:18:48.742Z,16
2023-05-12T16:23:50.162Z,10
2023-05-12T16:28:51.545Z,39
2023-05-12T16:33:52.994Z,12
2023-05-12T16:38:54.396Z,28
2023-05-12T16:43:55.937Z,15
2023-05-12T16:48:57.400Z,20
2023-05-12T16:53:58.771Z,24
2023-05-12T16:59:00.172Z,12
2023-05-12T17:04:01.850Z,15
2023-05-12T17:09:03.397Z,18
2023-05-12T17:14:04.789Z,2
2023-05-12T17:24:10.597Z,2
2023-05-12T17:29:11.993Z,3
2023-05-12T17:34:13.418Z,2
2023-05-12T17:39:14.852Z,3
2023-05-12T17:44:16.250Z,2
2023-05-12T17:49:17.672Z,2
2023-05-12T17:54:19.158Z,2
2023-05-12T17:59:20.515Z,2
2023-05-12T18:04:21.921Z,2
2023-05-12T18:09:23.322Z,3
2023-05-12T18:14:24.725Z,3
2023-05-12T18:19:26.189Z,1
2023-05-12T18:24:27.622Z,4
2023-05-12T18:29:29.024Z,3
2023-05-12T18:34:30.459Z,4
2023-05-12T18:39:31.842Z,5
2023-05-12T18:44:33.237Z,2
2023-05-12T18:49:34.615Z,4
2023-05-12T18:54:36.007Z,3
2023-05-12T18:59:37.419Z,4
2023-05-12T19:04:38.850Z,2
2023-05-12T19:09:40.455Z,3
2023-05-12T19:14:41.912Z,4
2023-05-12T19:19:43.317Z,2
2023-05-12T19:24:44.723Z,4
2023-05-12T19:29:46.168Z,3
2023-05-12T19:34:47.565Z,3
2023-05-12T19:39:48.984Z,2
2023-05-12T19:44:50.426Z,2
2023-05-12T19:49:51.855Z,2
2023-05-12T19:54:53.225Z,2
2023-05-12T19:59:54.607Z,3
2023-05-12T20:04:56.004Z,3
2023-05-12T20:09:57.403Z,3
2023-05-12T20:14:58.822Z,3
2023-05-12T20:20:00.226Z,2
2023-05-12T20:25:01.692Z,2
2023-05-12T20:30:03.169Z,2
2023-05-12T20:35:04.958Z,2
2023-05-12T20:40:06.346Z,3
2023-05-12T20:45:07.762Z,2
2023-05-12T20:50:09.162Z,2
2023-05-12T20:55:10.617Z,2
2023-05-12T21:00:11.981Z,3
2023-05-12T21:05:13.389Z,4
2023-05-12T21:10:14.848Z,2
2023-05-12T21:15:16.277Z,3
2023-05-12T21:20:17.678Z,2
2023-05-12T21:25:19.112Z,1
2023-05-12T21:30:20.766Z,3
2023-05-12T21:35:22.327Z,3
2023-05-12T21:40:23.759Z,2
2023-05-12T21:45:25.154Z,1
2023-05-12T21:50:26.569Z,2
2023-05-12T21:55:28.058Z,2
2023-05-12T22:00:29.504Z,2
2023-05-12T22:05:30.936Z,2
2023-05-12T22:10:32.365Z,3
2023-05-12T22:15:33.873Z,2
2023-05-12T22:20:35.285Z,2
2023-05-12T22:25:48.178Z,3
2023-05-12T22:30:49.605Z,2
2023-05-12T22:35:51.032Z,3
2023-05-12T22:40:52.434Z,2
2023-05-12T22:45:53.849Z,2
2023-05-12T22:50:55.374Z,2
2023-05-12T22:55:56.812Z,2
2023-05-12T23:00:58.317Z,1
2023-05-12T23:05:59.968Z,2
2023-05-12T23:11:01.466Z,2
2023-05-12T23:16:02.976Z,2
2023-05-12T23:21:04.393Z,3
2023-05-12T23:26:05.831Z,2
2023-05-12T23:31:07.357Z,2
2023-05-12T23:36:08.769Z,1
2023-05-12T23:41:10.259Z,3
2023-05-12T23:46:11.760Z,2
2023-05-12T23:51:13.253Z,2
2023-05-12T23:56:14.673Z,3
